createdAt,value
2023-01-29T00:05:43.010Z,22.03
2023-01-29T00:15:54.734Z,22.37
2023-01-29T00:25:59.756Z,18.63
2023-01-29T00:36:09.550Z,21.10
2023-01-29T00:46:11.340Z,19.70
2023-01-29T00:56:12.904Z,19.25
2023-01-29T01:06:14.330Z,18.47
2023-01-29T01:16:18.965Z,19.33
2023-01-29T01:26:20.335Z,18.52
2023-01-29T01:36:21.954Z,19.40
2023-01-29T01:46:28.551Z,18.53
2023-01-29T01:56:40.506Z,18.50
2023-01-29T02:07:02.428Z,18.17
2023-01-29T02:17:03.898Z,19.67
2023-01-29T02:27:09.439Z,18.73
2023-01-29T02:37:13.724Z,16.27
2023-01-29T02:47:35.701Z,14.27
2023-01-29T02:57:44.728Z,17.60
2023-01-29T03:19:13.622Z,18.98
2023-01-29T03:29:33.628Z,17.20
2023-01-29T03:39:36.908Z,16.13
2023-01-29T03:49:47.454Z,17.38
2023-01-29T03:59:54.939Z,17.43
2023-01-29T04:10:02.818Z,17.53
2023-01-29T04:20:04.603Z,13.63
2023-01-29T04:30:21.288Z,19.83
2023-01-29T04:40:40.281Z,18.03
2023-01-29T04:50:56.759Z,16.42
2023-01-29T05:01:01.013Z,22.45
2023-01-29T05:11:02.470Z,19.27
2023-01-29T05:21:07.442Z,18.93
2023-01-29T05:31:09.700Z,19.67
2023-01-29T05:41:11.218Z,16.77
2023-01-29T05:51:12.757Z,18.20
2023-01-29T06:01:17.281Z,16.98
2023-01-29T06:11:18.934Z,20.13
2023-01-29T06:21:20.477Z,18.23
2023-01-29T06:31:37.443Z,20.33
2023-01-29T06:41:39.574Z,21.52
2023-01-29T06:51:41.097Z,14.97
2023-01-29T07:01:44.339Z,18.77
2023-01-29T07:11:46.005Z,17.85
2023-01-29T07:21:47.422Z,17.37
2023-01-29T07:31:49.118Z,18.37
2023-01-29T07:41:50.743Z,22.92
2023-01-29T07:51:52.079Z,19.17
2023-01-29T08:01:53.476Z,15.57
2023-01-29T08:11:54.945Z,19.40
2023-01-29T08:21:56.424Z,21.73
2023-01-29T08:31:57.948Z,20.87
2023-01-29T08:41:59.535Z,21.60
2023-01-29T08:52:02.987Z,22.27
2023-01-29T09:02:04.668Z,15.03
2023-01-29T09:12:06.429Z,19.67
2023-01-29T09:22:08.310Z,15.70
2023-01-29T09:32:10.637Z,17.37
2023-01-29T09:42:31.616Z,18.77
2023-01-29T09:52:37.789Z,21.92
2023-01-29T10:13:39.467Z,21.00
2023-01-29T10:23:47.761Z,18.87
2023-01-29T10:34:01.999Z,17.35
2023-01-29T10:44:25.233Z,12.10
2023-01-29T10:55:08.112Z,17.77
2023-01-29T11:05:33.103Z,14.70
2023-01-29T11:15:34.938Z,16.37
2023-01-29T11:25:36.520Z,12.10
2023-01-29T11:35:38.040Z,19.25
2023-01-29T11:45:40.366Z,16.67
2023-01-29T11:55:50.880Z,17.37
2023-01-29T12:05:59.463Z,15.93
2023-01-29T12:16:12.784Z,17.52
2023-01-29T12:26:34.198Z,17.27
2023-01-29T12:36:43.874Z,17.93
2023-01-29T12:46:53.916Z,18.67
2023-01-29T12:56:59.894Z,15.53
2023-01-29T13:07:28.265Z,13.77
2023-01-29T13:18:02.836Z,11.80
2023-01-29T13:28:04.466Z,14.50
2023-01-29T13:38:17.052Z,15.27
2023-01-29T13:48:28.920Z,11.80
2023-01-29T13:58:33.393Z,14.27
2023-01-29T14:08:34.709Z,13.73
2023-01-29T14:18:44.634Z,14.33
2023-01-29T14:29:00.681Z,14.88
2023-01-29T14:39:02.144Z,13.13
2023-01-29T14:49:03.661Z,13.00
2023-01-29T14:59:20.851Z,14.55
2023-01-29T15:09:32.698Z,14.55
2023-01-29T15:19:44.803Z,13.20
2023-01-29T15:30:17.682Z,12.40
2023-01-29T15:40:19.669Z,11.25
2023-01-29T15:50:21.981Z,11.63
2023-01-29T16:00:29.669Z,13.53
2023-01-29T16:10:32.439Z,12.75
2023-01-29T16:20:39.102Z,10.77
2023-01-29T16:30:40.775Z,10.30
2023-01-29T16:41:15.931Z,13.35
2023-01-29T16:51:38.492Z,8.43
2023-01-29T17:01:39.870Z,8.93
2023-01-29T17:11:44.393Z,14.00
2023-01-29T17:21:46.731Z,12.13
2023-01-29T17:31:48.440Z,12.90
2023-01-29T17:41:52.463Z,9.47
2023-01-29T17:51:55.603Z,8.75
2023-01-29T18:01:57.221Z,13.87
2023-01-29T18:11:58.659Z,10.80
2023-01-29T18:22:00.154Z,11.23
2023-01-29T18:32:02.023Z,13.23
2023-01-29T18:42:03.629Z,12.87
2023-01-29T18:52:06.466Z,10.13
2023-01-29T19:02:07.949Z,14.18
2023-01-29T19:12:09.854Z,13.73
2023-01-29T19:22:11.434Z,12.50
2023-01-29T19:32:12.911Z,10.30
2023-01-29T19:42:14.594Z,8.97
2023-01-29T19:52:49.904Z,13.70
2023-01-29T20:02:52.453Z,9.88
2023-01-29T20:12:53.935Z,13.15
2023-01-29T20:22:55.539Z,13.40
2023-01-29T20:32:57.012Z,13.77
2023-01-29T20:42:58.476Z,7.63
2023-01-29T20:52:59.918Z,10.37
2023-01-29T21:03:01.618Z,10.07
2023-01-29T21:13:03.189Z,12.35
2023-01-29T21:23:07.036Z,8.27
2023-01-29T21:33:08.720Z,11.93
2023-01-29T21:43:13.072Z,9.57
2023-01-29T21:53:15.036Z,6.00
2023-01-29T22:03:16.639Z,13.27
2023-01-29T22:13:18.781Z,13.70
2023-01-29T22:23:20.232Z,13.02
2023-01-29T22:33:21.763Z,12.47
2023-01-29T22:43:25.818Z,11.80
2023-01-29T22:53:27.256Z,14.10
2023-01-29T23:03:28.830Z,13.23
2023-01-29T23:13:30.303Z,10.47
2023-01-29T23:23:33.507Z,13.68
2023-01-29T23:33:34.900Z,15.38
2023-01-29T23:43:37.517Z,10.80
2023-01-29T23:53:39.142Z,13.00
